Flight Track Log - Related Links

Times and Time Zones

All times are in EDT time to prevent confusion due to time zone crossing. See the AAL963 flight status page for this flight to view local times or setup timezone preferences in your user account.


Time Position Orientation Groundspeed Altitude Reporting Facility
EDT Latitude Longitude Course Direction KTS MPH feet Rate Location/Type
Wed 09:17:40 PM 32.8710 -97.0510 180° South 190 219 1,500  Level FlightAware ADS-B
Wed 09:18:00 PM 32.8540 -97.0510 180° South 193 222 2,100 1,350 Climbing FlightAware ADS-B
Wed 09:18:20 PM 32.8340 -97.0520 182° South 219 252 2,400 968 Climbing FlightAware ADS-B
Wed 09:18:31 PM 32.8230 -97.0520 180° South 230 265 2,600 1,333 Climbing FlightAware ADS-B
Wed 09:18:56 PM 32.7950 -97.0530 182° South 251 289 3,200 2,000 Climbing FlightAware ADS-B
Wed 09:19:16 PM 32.7710 -97.0530 180° South 251 289 4,100 2,591 Climbing FlightAware ADS-B
Wed 09:19:40 PM 32.7420 -97.0540 182° South 257 296 5,100 2,267 Climbing FlightAware ADS-B
Wed 09:20:01 PM 32.7170 -97.0540 180° South 267 307 5,800 1,935 Climbing FlightAware ADS-B
Wed 09:20:11 PM 32.7050 -97.0540 180° South 272 313 6,100 2,323 Climbing FlightAware ADS-B
Wed 09:20:32 PM 32.6780 -97.0550 182° South 274 315 7,000 2,595 Climbing FlightAware ADS-B
Wed 09:20:48 PM 32.6570 -97.0550 180° South 276 318 7,700 2,471 Climbing FlightAware ADS-B
Wed 09:21:06 PM 32.6340 -97.0550 180° South 280 322 8,400 2,250 Climbing FlightAware ADS-B
Wed 09:21:36 PM 32.5960 -97.0460 169° South 290 334 9,500 2,250 Climbing FlightAware ADS-B
Wed 09:21:46 PM 32.5840 -97.0380 151° Southeast 292 336 9,900 1,610 Climbing FlightAware ADS-B
Wed 09:22:17 PM 32.5480 -97.0110 148° Southeast 314 361 10,600 1,343 Climbing FlightAware ADS-B
Wed 09:22:53 PM 32.5000 -96.9750 148° Southeast 349 402 11,400 1,459 Climbing FlightAware ADS-B
Wed 09:23:31 PM 32.4440 -96.9360 150° Southeast 377 434 12,400 1,886 Climbing FlightAware ADS-B
Wed 09:24:03 PM 32.3930 -96.9110 158° South 388 447 13,600 2,226 Climbing FlightAware ADS-B
Wed 09:24:33 PM 32.3420 -96.8880 159° South 397 457 14,700 2,197 Climbing FlightAware ADS-B
Wed 09:25:14 PM 32.2690 -96.8550 159° South 408 470 16,200 2,108 Climbing FlightAware ADS-B
Wed 09:25:47 PM 32.2100 -96.8280 159° South 417 480 17,300 2,031 Climbing FlightAware ADS-B
Wed 09:26:19 PM 32.1509 -96.8009 159° South 426 490 18,400 2,032 Climbing FlightAware ADS-B
Wed 09:26:49 PM 32.0955 -96.7755 159° South 431 496 19,400 1,909 Climbing FlightAware ADS-B
Wed 09:27:25 PM 32.0287 -96.7451 159° South 437 503 20,500 1,909 Climbing FlightAware ADS-B
Wed 09:27:55 PM 31.9701 -96.7184 159° South 444 511 21,500 1,967 Climbing FlightAware ADS-B
Wed 09:28:26 PM 31.9112 -96.6915 159° South 450 518 22,500 1,839 Climbing FlightAware ADS-B
Wed 09:28:57 PM 31.8494 -96.6634 159° South 456 525 23,400 1,645 Climbing FlightAware ADS-B
Wed 09:29:28 PM 31.7880 -96.6355 159° South 464 534 24,200 1,343 Climbing FlightAware ADS-B
Wed 09:30:04 PM 31.7290 -96.5784 130° Southeast 472 543 24,900 1,394 Climbing FlightAware ADS-B
Wed 09:31:07 PM 31.6493 -96.4433 125° Southeast 486 559 26,500 1,484 Climbing FlightAware ADS-B
Wed 09:31:37 PM 31.6109 -96.3770 124° Southeast 492 566 27,200 1,377 Climbing FlightAware ADS-B
Wed 09:32:08 PM 31.5719 -96.3088 124° Southeast 498 573 27,900 1,377 Climbing FlightAware ADS-B
Wed 09:32:38 PM 31.5322 -96.2394 124° Southeast 503 579 28,600 1,406 Climbing FlightAware ADS-B
Wed 09:33:12 PM 31.4889 -96.1638 124° Southeast 508 585 29,400 1,500 Climbing FlightAware ADS-B
Wed 09:33:42 PM 31.4487 -96.0936 124° Southeast 510 587 30,200 1,770 Climbing FlightAware ADS-B
Wed 09:34:13 PM 31.4087 -96.0227 123° Southeast 506 582 31,200 1,645 Climbing FlightAware ADS-B
Wed 09:34:44 PM 31.3700 -95.9532 123° Southeast 507 583 31,900 1,475 Climbing FlightAware ADS-B
Wed 09:35:14 PM 31.3316 -95.8833 123° Southeast 507 583 32,700 1,065 Climbing FlightAware ADS-B
Wed 09:35:46 PM 31.2910 -95.8087 122° Southeast 503 579 33,000 286 Climbing FlightAware ADS-B
Wed 09:36:17 PM 31.2526 -95.7381 122° Southeast 504 580 33,000  Level FlightAware ADS-B
Wed 09:38:21 PM 31.0986 -95.4548 122° Southeast 505 581 33,000  Level FlightAware ADS-B
Wed 09:38:51 PM 31.0610 -95.3853 122° Southeast 506 582 33,000  Level FlightAware ADS-B
Wed 09:39:51 PM 30.9859 -95.2472 122° Southeast 503 579 33,000  Level FlightAware ADS-B
Wed 09:40:22 PM 30.9474 -95.1766 122° Southeast 504 580 33,000  Level FlightAware ADS-B
Wed 09:40:35 PM 30.9299 -95.1469 124° Southeast 503 579 33,000  Level FlightAware ADS-B
Wed 09:40:49 PM 30.9090 -95.1175 130° Southeast 500 575 33,000  Level FlightAware ADS-B
Wed 09:41:15 PM 30.8672 -95.0670 134° Southeast 499 574 33,000  Level FlightAware ADS-B
Wed 09:41:36 PM 30.8326 -95.0305 138° Southeast 497 572 33,000  Level FlightAware ADS-B
Wed 09:42:06 PM 30.7780 -94.9807 142° Southeast 497 572 33,000  Level FlightAware ADS-B
Wed 09:42:36 PM 30.7221 -94.9318 143° Southeast 498 573 33,000  Level FlightAware ADS-B
Wed 09:43:07 PM 30.6660 -94.8829 143° Southeast 496 571 33,000  Level FlightAware ADS-B
Wed 09:43:37 PM 30.6112 -94.8350 143° Southeast 497 572 33,000  Level FlightAware ADS-B
Wed 09:44:38 PM 30.4993 -94.7369 143° Southeast 498 573 33,000  Level FlightAware ADS-B
Wed 09:45:47 PM 30.3720 -94.6255 143° Southeast 497 572 33,000  Level FlightAware ADS-B
Wed 09:46:17 PM 30.3162 -94.5768 143° Southeast 497 572 33,000  Level FlightAware ADS-B
Wed 09:46:48 PM 30.2610 -94.5289 143° Southeast 497 572 33,000  Level FlightAware ADS-B
Wed 09:48:48 PM 30.0401 -94.3372 143° Southeast 491 565 33,000  Level FlightAware ADS-B
Wed 09:49:18 PM 29.9854 -94.2901 143° Southeast 489 563 33,000  Level FlightAware ADS-B
Wed 09:49:48 PM 29.9309 -94.2431 143° Southeast 488 562 33,000  Level FlightAware ADS-B
Wed 09:50:20 PM 29.8737 -94.1938 143° Southeast 488 562 33,000  Level FlightAware ADS-B
Wed 09:50:50 PM 29.8186 -94.1463 143° Southeast 489 563 33,000  Level FlightAware ADS-B
Wed 09:51:51 PM 29.7085 -94.0518 143° Southeast 489 563 33,000  Level FlightAware ADS-B
Wed 09:52:22 PM 29.6530 -94.0043 143° Southeast 491 565 33,000  Level FlightAware ADS-B
Wed 09:52:52 PM 29.5980 -93.9573 143° Southeast 490 564 33,000  Level FlightAware ADS-B
Wed 09:53:22 PM 29.5435 -93.9108 143° Southeast 490 564 33,000  Level FlightAware ADS-B
Wed 09:53:52 PM 29.4887 -93.8641 143° Southeast 491 565 33,000  Level FlightAware ADS-B
Wed 09:54:24 PM 29.4300 -93.8142 143° Southeast 490 564 33,000  Level FlightAware ADS-B
Wed 09:54:54 PM 29.3748 -93.7673 143° Southeast 490 564 33,000  Level FlightAware ADS-B
Wed 09:55:32 PM 29.3069 -93.7097 144° Southeast 488 562 33,000  Level FlightAware ADS-B
Wed 09:56:20 PM 29.2193 -93.6355 144° Southeast 489 563 33,000  Level FlightAware ADS-B
Wed 09:56:57 PM 29.1524 -93.5791 144° Southeast 488 562 33,000  Level FlightAware ADS-B
Wed 09:57:27 PM 29.0975 -93.5327 144° Southeast 488 562 33,000  Level FlightAware ADS-B
Wed 09:58:36 PM 28.9953 -93.4453 144° Southeast 494 568 33,000  Level Houston Center
Wed 09:59:37 PM 28.8858 -93.3536 144° Southeast 489 563 33,000  Level Houston Center
Wed 10:00:38 PM 28.7539 -93.2436 144° Southeast 490 564 33,000  Level Houston Center
Wed 10:01:39 PM 28.6439 -93.1514 144° Southeast 492 566 33,000 -49 Level Houston Center
Wed 10:02:40 PM 28.5347 -93.0608 144° Southeast 488 562 32,900 -49 Descending Houston Center
Wed 10:03:41 PM 28.4253 -92.9675 143° Southeast 491 565 32,900  Level Houston Center
Wed 10:04:42 PM 28.3139 -92.8783 145° Southeast 490 564 32,900 49 Level Houston Center
Wed 10:05:43 PM 28.2042 -92.7869 144° Southeast 491 565 33,000 49 Climbing Houston Center
Wed 10:06:44 PM 28.0942 -92.6944 143° Southeast 491 565 33,000  Level Houston Center
Wed 10:07:45 PM 27.9836 -92.6053 145° Southeast 490 564 33,000  Level Houston Center
Wed 10:08:46 PM 27.8736 -92.5153 144° Southeast 489 563 33,000  Level Houston Center
Wed 10:09:47 PM 27.7617 -92.4253 145° Southeast 493 567 33,000 -49 Level Houston Center
Wed 10:10:48 PM 27.6511 -92.3350 144° Southeast 491 565 32,900  Descending Houston Center
Wed 10:11:49 PM 27.5186 -92.2261 144° Southeast 491 565 33,000 49 Climbing Houston Center
Wed 10:12:50 PM 27.4061 -92.1364 145° Southeast 492 566 33,000 -49 Level Houston Center
Wed 10:13:51 PM 27.2944 -92.0461 144° Southeast 493 567 32,900 -49 Descending Houston Center
Wed 10:14:52 PM 27.1844 -91.9583 145° Southeast 491 565 32,900  Level Houston Center
Wed 10:15:53 PM 27.0736 -91.8692 144° Southeast 492 566 32,900 49 Level Houston Center
Wed 10:16:54 PM 26.9622 -91.7792 144° Southeast 491 565 33,000 49 Climbing Houston Center
Wed 10:17:55 PM 26.8528 -91.6892 144° Southeast 490 564 33,000  Level Houston Center
Wed 10:19:00 PM 26.7353 -91.5939 144° Southeast  Level FlightAware Approximate
Wed 10:26:00 PM 25.9687 -90.9920 145° Southeast  Level FlightAware Approximate
Wed 10:27:00 PM 25.8595 -90.9058 145° Southeast  Level FlightAware Approximate
Wed 10:28:00 PM 25.7502 -90.8199 145° Southeast  Level FlightAware Approximate
Wed 10:29:00 PM 25.6409 -90.7340 145° Southeast  Level FlightAware Approximate
Wed 10:30:00 PM 25.5315 -90.6484 145° Southeast  Level FlightAware Approximate
Wed 10:31:00 PM 25.4221 -90.5629 145° Southeast  Level FlightAware Approximate
Wed 10:32:00 PM 25.3126 -90.4776 145° Southeast  Level FlightAware Approximate
Wed 10:33:00 PM 25.2031 -90.3924 145° Southeast  Level FlightAware Approximate
Wed 10:34:00 PM 25.0935 -90.3073 145° Southeast  Level FlightAware Approximate
Wed 10:35:00 PM 24.9839 -90.2225 145° Southeast  Level FlightAware Approximate
Wed 10:36:00 PM 24.8742 -90.1377 145° Southeast  Level FlightAware Approximate
Wed 10:37:00 PM 24.7645 -90.0531 145° Southeast  Level FlightAware Approximate
Wed 10:38:00 PM 24.6548 -89.9687 145° Southeast  Level FlightAware Approximate
Wed 10:39:00 PM 24.5450 -89.8844 145° Southeast  Level FlightAware Approximate
Wed 10:40:00 PM 24.4379 -89.7983 145° Southeast  Level FlightAware Approximate
Wed 10:40:37 PM 24.3320 -89.7320 145° Southeast 33,000  Level FlightAware ADS-B
Wed 10:41:10 PM 24.2710 -89.7000 154° Southeast 494 568 33,000  Level FlightAware ADS-B
Wed 10:41:46 PM 24.1810 -89.6550 155° Southeast 494 568 33,000  Level FlightAware ADS-B
Wed 10:42:15 PM 24.1330 -89.6300 155° Southeast 494 568 33,000  Level FlightAware ADS-B
Wed 10:43:04 PM 24.0470 -89.5860 155° Southeast 494 568 33,000  Level FlightAware ADS-B
Wed 10:43:40 PM 23.9830 -89.5540 155° Southeast 494 568 33,000  Level FlightAware ADS-B
Wed 10:44:20 PM 23.8730 -89.4990 155° Southeast 498 573 33,000  Level FlightAware ADS-B
Wed 10:45:03 PM 23.7740 -89.4510 156° South 500 575 33,000  Level FlightAware ADS-B
Wed 10:45:41 PM 23.6980 -89.4120 155° Southeast 499 574 33,000  Level FlightAware ADS-B
Wed 10:46:20 PM 23.6310 -89.3720 151° Southeast 499 574 33,000  Level FlightAware ADS-B
Wed 10:46:53 PM 23.5530 -89.2920 137° Southeast 496 571 33,000  Level FlightAware ADS-B
Wed 10:47:31 PM 23.4970 -89.2370 138° Southeast 496 571 33,000  Level FlightAware ADS-B
Wed 10:48:20 PM 23.4140 -89.1530 137° Southeast 496 571 33,000  Level FlightAware ADS-B
Wed 10:49:06 PM 23.3300 -89.0700 138° Southeast 497 572 33,000  Level FlightAware ADS-B
Wed 10:49:38 PM 23.2790 -89.0200 138° Southeast 496 571 33,000  Level FlightAware ADS-B
Wed 10:50:24 PM 23.2010 -88.9430 138° Southeast 497 572 33,000  Level FlightAware ADS-B
Wed 10:50:59 PM 23.1370 -88.8790 137° Southeast 498 573 33,000  Level FlightAware ADS-B
Wed 10:51:29 PM 23.0640 -88.8070 138° Southeast 496 571 33,000  Level FlightAware ADS-B
Wed 10:52:09 PM 23.0210 -88.7650 138° Southeast 498 573 33,000  Level FlightAware ADS-B
Wed 10:52:46 PM 22.9640 -88.7090 138° Southeast 499 574 33,000  Level FlightAware ADS-B
Wed 10:53:38 PM 22.8530 -88.5990 138° Southeast 499 574 33,000  Level FlightAware ADS-B
Wed 10:54:10 PM 22.7920 -88.5390 138° Southeast 499 574 33,000  Level FlightAware ADS-B
Wed 10:54:47 PM 22.7270 -88.4750 138° Southeast 499 574 33,000  Level FlightAware ADS-B
Wed 10:55:20 PM 22.6740 -88.4240 138° Southeast 498 573 33,000  Level FlightAware ADS-B
Wed 10:55:58 PM 22.6090 -88.3600 138° Southeast 498 573 33,000  Level FlightAware ADS-B
Wed 10:56:35 PM 22.5410 -88.2930 138° Southeast 499 574 33,000  Level FlightAware ADS-B
Wed 10:57:10 PM 22.4840 -88.2380 138° Southeast 500 575 33,000  Level FlightAware ADS-B
Wed 10:57:52 PM 22.4130 -88.1690 138° Southeast 500 575 33,000 152 Level FlightAware ADS-B
Wed 10:58:29 PM 22.3480 -88.1050 138° Southeast 502 578 33,200 822 Climbing FlightAware ADS-B
Wed 10:59:05 PM 22.2870 -88.0450 138° Southeast 500 575 34,000 1,333 Climbing FlightAware ADS-B
Wed 10:59:41 PM 22.2330 -87.9930 138° Southeast 498 573 34,800 759 Climbing FlightAware ADS-B
Wed 11:00:24 PM 22.1530 -87.9160 138° Southeast 496 571 35,000 158 Climbing FlightAware ADS-B
Wed 11:00:57 PM 22.1010 -87.8650 138° Southeast 498 573 35,000  Level FlightAware ADS-B
Wed 11:01:35 PM 22.0320 -87.7990 138° Southeast 497 572 35,000  Level FlightAware ADS-B
Wed 11:02:08 PM 21.9780 -87.7470 138° Southeast 497 572 35,000  Level FlightAware ADS-B
Wed 11:02:42 PM 21.9170 -87.6880 138° Southeast 498 573 35,000  Level FlightAware ADS-B
Wed 11:03:26 PM 21.8400 -87.6130 138° Southeast 498 573 35,000  Level FlightAware ADS-B
Wed 11:04:00 PM 21.7880 -87.5630 138° Southeast 499 574 35,000  Level FlightAware ADS-B
Wed 11:04:38 PM 21.7200 -87.4970 138° Southeast 499 574 35,000  Level FlightAware ADS-B
Wed 11:05:12 PM 21.6600 -87.4400 139° Southeast 499 574 35,000  Level FlightAware ADS-B
Wed 11:05:54 PM 21.5910 -87.3740 138° Southeast 499 574 35,000  Level FlightAware ADS-B
Wed 11:06:29 PM 21.5180 -87.3040 138° Southeast 499 574 35,000  Level FlightAware ADS-B
Wed 11:07:07 PM 21.4520 -87.2410 138° Southeast 501 577 35,000  Level FlightAware ADS-B
Wed 11:07:37 PM 21.4000 -87.1920 139° Southeast 502 578 35,000  Level FlightAware ADS-B
Wed 11:08:15 PM 21.3340 -87.1280 138° Southeast 504 580 35,000  Level FlightAware ADS-B
Wed 11:08:51 PM 21.2710 -87.0680 138° Southeast 505 581 35,000  Level FlightAware ADS-B
Wed 11:09:27 PM 21.2080 -87.0080 138° Southeast 506 582 35,000  Level FlightAware ADS-B
Wed 11:09:59 PM 21.1510 -86.9540 139° Southeast 506 582 35,000  Level FlightAware ADS-B
Wed 11:10:35 PM 21.0890 -86.8950 138° Southeast 506 582 35,000  Level FlightAware ADS-B
Wed 11:11:12 PM 21.0250 -86.8340 138° Southeast 506 582 35,000  Level FlightAware ADS-B
Wed 11:11:43 PM 20.9700 -86.7820 139° Southeast 507 583 35,000  Level FlightAware ADS-B
Wed 11:12:19 PM 20.9070 -86.7220 138° Southeast 509 586 35,000  Level FlightAware ADS-B
Wed 11:12:57 PM 20.8400 -86.6590 139° Southeast 509 586 35,000  Level FlightAware ADS-B
Wed 11:13:27 PM 20.7870 -86.6090 139° Southeast 510 587 35,000  Level FlightAware ADS-B
Wed 11:14:05 PM 20.7190 -86.5450 139° Southeast 510 587 35,000  Level FlightAware ADS-B
Wed 11:14:39 PM 20.6590 -86.4880 138° Southeast 510 587 35,000  Level FlightAware ADS-B
Wed 11:15:17 PM 20.5930 -86.4260 139° Southeast 510 587 35,000  Level FlightAware ADS-B
Wed 11:15:53 PM 20.5300 -86.3660 138° Southeast 510 587 35,000  Level FlightAware ADS-B
Wed 11:16:26 PM 20.4770 -86.3160 139° Southeast 510 587 35,000  Level FlightAware ADS-B
Wed 11:17:02 PM 20.4130 -86.2560 139° Southeast 510 587 35,000  Level FlightAware ADS-B
Wed 11:17:38 PM 20.3590 -86.2040 138° Southeast 510 587 35,000  Level FlightAware ADS-B
Wed 11:18:15 PM 20.3040 -86.1510 138° Southeast 510 587 35,000  Level FlightAware ADS-B
Wed 11:18:51 PM 20.2500 -86.1000 138° Southeast 510 587 35,000  Level FlightAware ADS-B
Wed 11:19:38 PM 20.1480 -86.0090 140° Southeast 513 590 35,000  Level FlightAware ADS-B
Wed 11:20:17 PM 20.0570 -85.9240 139° Southeast 512 589 35,000  Level FlightAware ADS-B
Wed 11:20:53 PM 19.9940 -85.8650 139° Southeast 514 592 35,000  Level FlightAware ADS-B
Wed 11:21:27 PM 19.9330 -85.8070 138° Southeast 514 592 35,000  Level FlightAware ADS-B
Wed 11:22:03 PM 19.8690 -85.7470 139° Southeast 514 592 35,000  Level FlightAware ADS-B
Wed 11:22:39 PM 19.8040 -85.6860 139° Southeast 514 592 35,000  Level FlightAware ADS-B
Wed 11:23:11 PM 19.7470 -85.6320 138° Southeast 514 592 35,000  Level FlightAware ADS-B
Wed 11:23:41 PM 19.6980 -85.5860 139° Southeast 512 589 35,000  Level FlightAware ADS-B
Wed 11:24:21 PM 19.6380 -85.5290 138° Southeast 512 589 35,000  Level FlightAware ADS-B
Wed 11:25:09 PM 19.5480 -85.4440 138° Southeast 510 587 35,000  Level FlightAware ADS-B
Wed 11:25:47 PM 19.4730 -85.3750 139° Southeast 510 587 35,000  Level FlightAware ADS-B
Wed 11:26:21 PM 19.4130 -85.3190 139° Southeast 510 587 35,000  Level FlightAware ADS-B
Wed 11:26:57 PM 19.3480 -85.2580 138° Southeast 512 589 35,000  Level FlightAware ADS-B
Wed 11:27:37 PM 19.2780 -85.1930 139° Southeast 512 589 35,000  Level FlightAware ADS-B
Wed 11:28:18 PM 19.2120 -85.1310 138° Southeast 512 589 35,000  Level FlightAware ADS-B
Wed 11:28:54 PM 19.1580 -85.0790 138° Southeast 512 589 35,000  Level FlightAware ADS-B
Wed 11:29:30 PM 19.1040 -85.0280 138° Southeast 512 589 35,000  Level FlightAware ADS-B
Wed 11:30:06 PM 19.0500 -84.9770 138° Southeast 512 589 35,000  Level FlightAware ADS-B
Wed 11:30:42 PM 18.9970 -84.9250 137° Southeast 512 589 35,000  Level FlightAware ADS-B
Wed 11:31:18 PM 18.9430 -84.8740 138° Southeast 512 589 35,000  Level FlightAware ADS-B
Wed 11:31:54 PM 18.8890 -84.8230 138° Southeast 512 589 35,000  Level FlightAware ADS-B
Wed 11:32:30 PM 18.8350 -84.7710 138° Southeast 512 589 35,000  Level FlightAware ADS-B
Wed 11:33:06 PM 18.7810 -84.7200 138° Southeast 512 589 35,000  Level FlightAware ADS-B
Wed 11:33:43 PM 18.7260 -84.6680 138° Southeast 512 589 35,000  Level FlightAware ADS-B
Wed 11:34:19 PM 18.6720 -84.6160 138° Southeast 512 589 35,000  Level FlightAware ADS-B
Wed 11:34:55 PM 18.6180 -84.5650 138° Southeast 512 589 35,000  Level FlightAware ADS-B
Wed 11:35:31 PM 18.5640 -84.5140 138° Southeast 512 589 35,000  Level FlightAware ADS-B
Wed 11:36:07 PM 18.5100 -84.4630 138° Southeast 512 589 35,000  Level FlightAware ADS-B
Wed 11:36:44 PM 18.4550 -84.4100 138° Southeast 512 589 35,000  Level FlightAware ADS-B
Wed 11:37:20 PM 18.4010 -84.3590 138° Southeast 512 589 35,000  Level FlightAware ADS-B
Wed 11:39:00 PM 18.2820 -84.1624 122° Southeast  Level FlightAware Approximate
Wed 11:40:00 PM 18.2106 -84.0445 123° Southeast  Level FlightAware Approximate
Wed 11:41:00 PM 18.1390 -83.9268 123° Southeast  Level FlightAware Approximate
Wed 11:42:00 PM 18.0674 -83.8091 123° Southeast  Level FlightAware Approximate
Wed 11:43:00 PM 17.9957 -83.6916 123° Southeast  Level FlightAware Approximate
Wed 11:44:00 PM 17.9152 -83.5807 135° Southeast  Level FlightAware Approximate
Wed 11:45:00 PM 17.8205 -83.4829 135° Southeast  Level FlightAware Approximate
Wed 11:46:00 PM 17.7257 -83.3852 136° Southeast  Level FlightAware Approximate
Wed 11:47:00 PM 17.6308 -83.2877 136° Southeast  Level FlightAware Approximate
Wed 11:48:00 PM 17.5360 -83.1902 136° Southeast  Level FlightAware Approximate
Wed 11:49:00 PM 17.4410 -83.0928 136° Southeast  Level FlightAware Approximate
Wed 11:50:00 PM 17.3450 -82.9968 139° Southeast  Level FlightAware Approximate
Wed 11:51:00 PM 17.2449 -82.9054 139° Southeast  Level FlightAware Approximate
Wed 11:52:00 PM 17.1449 -82.8140 139° Southeast  Level FlightAware Approximate
Wed 11:53:00 PM 17.0447 -82.7227 139° Southeast  Level FlightAware Approximate
Wed 11:54:00 PM 16.9446 -82.6316 139° Southeast  Level FlightAware Approximate
Wed 11:55:00 PM 16.8444 -82.5405 139° Southeast  Level FlightAware Approximate
Wed 11:56:00 PM 16.7441 -82.4495 139° Southeast  Level FlightAware Approximate
Wed 11:57:00 PM 16.6439 -82.3586 139° Southeast  Level FlightAware Approximate
Wed 11:58:00 PM 16.5435 -82.2679 139° Southeast  Level FlightAware Approximate
Wed 11:59:00 PM 16.4438 -82.1765 134° Southeast  Level FlightAware Approximate
Thu 12:00:00 AM 16.3520 -82.0764 134° Southeast  Level FlightAware Approximate
Thu 12:01:00 AM 16.2603 -81.9764 134° Southeast  Level FlightAware Approximate
Thu 12:02:00 AM 16.1685 -81.8764 134° Southeast  Level FlightAware Approximate
Thu 12:03:00 AM 16.0766 -81.7766 134° Southeast  Level FlightAware Approximate
Thu 12:04:00 AM 15.9847 -81.6769 134° Southeast  Level FlightAware Approximate
Thu 12:05:00 AM 15.8928 -81.5772 134° Southeast  Level FlightAware Approximate
Thu 12:06:00 AM 15.8008 -81.4777 134° Southeast  Level FlightAware Approximate
Thu 12:07:00 AM 15.7088 -81.3782 134° Southeast  Level FlightAware Approximate
Thu 12:08:00 AM 15.6167 -81.2788 134° Southeast  Level FlightAware Approximate
Thu 12:09:00 AM 15.5246 -81.1795 134° Southeast  Level FlightAware Approximate
Thu 12:10:00 AM 15.4324 -81.0803 134° Southeast  Level FlightAware Approximate
Thu 12:11:00 AM 15.3402 -80.9812 134° Southeast  Level FlightAware Approximate
Thu 12:12:00 AM 15.2480 -80.8822 134° Southeast  Level FlightAware Approximate
Thu 12:13:00 AM 15.1557 -80.7832 134° Southeast  Level FlightAware Approximate
Thu 12:14:00 AM 15.0633 -80.6844 134° Southeast  Level FlightAware Approximate
Thu 12:15:00 AM 14.9670 -80.5901 142° Southeast  Level FlightAware Approximate
Thu 12:16:00 AM 14.8622 -80.5058 142° Southeast  Level FlightAware Approximate
Thu 12:17:00 AM 14.7574 -80.4215 142° Southeast  Level FlightAware Approximate
Thu 12:18:00 AM 14.6525 -80.3373 142° Southeast  Level FlightAware Approximate
Thu 12:19:00 AM 14.5476 -80.2532 142° Southeast  Level FlightAware Approximate
Thu 12:20:00 AM 14.4426 -80.1692 142° Southeast  Level FlightAware Approximate
Thu 12:21:00 AM 14.3376 -80.0852 142° Southeast  Level FlightAware Approximate
Thu 12:22:00 AM 14.2326 -80.0013 142° Southeast  Level FlightAware Approximate
Thu 12:23:00 AM 14.1276 -79.9175 142° Southeast  Level FlightAware Approximate
Thu 12:24:00 AM 14.0225 -79.8338 142° Southeast  Level FlightAware Approximate
Thu 12:25:00 AM 13.9174 -79.7502 142° Southeast  Level FlightAware Approximate
Thu 12:26:00 AM 13.8123 -79.6665 142° Southeast  Level FlightAware Approximate
Thu 12:27:00 AM 13.7076 -79.5824 142° Southeast  Level FlightAware Approximate
Thu 12:28:00 AM 13.6029 -79.4984 142° Southeast  Level FlightAware Approximate
Thu 12:29:00 AM 13.4981 -79.4145 142° Southeast  Level FlightAware Approximate
Thu 12:30:00 AM 13.3933 -79.3306 142° Southeast  Level FlightAware Approximate
Thu 12:31:00 AM 13.2885 -79.2469 142° Southeast  Level FlightAware Approximate
Thu 12:32:00 AM 13.1836 -79.1632 142° Southeast  Level FlightAware Approximate
Thu 12:33:00 AM 13.0787 -79.0795 142° Southeast  Level FlightAware Approximate
Thu 12:34:00 AM 12.9738 -78.9960 142° Southeast  Level FlightAware Approximate
Thu 12:35:00 AM 12.8688 -78.9125 142° Southeast  Level FlightAware Approximate
Thu 12:36:00 AM 12.7639 -78.8291 142° Southeast  Level FlightAware Approximate
Thu 12:37:00 AM 12.6589 -78.7457 142° Southeast  Level FlightAware Approximate
Thu 12:38:00 AM 12.5539 -78.6624 142° Southeast  Level FlightAware Approximate
Thu 12:39:00 AM 12.4488 -78.5792 142° Southeast  Level FlightAware Approximate
Thu 12:40:00 AM 12.3438 -78.4961 142° Southeast  Level FlightAware Approximate
Thu 12:41:00 AM 12.2387 -78.4130 142° Southeast  Level FlightAware Approximate
Thu 12:42:00 AM 12.1335 -78.3300 142° Southeast  Level FlightAware Approximate
Thu 12:43:00 AM 12.0278 -78.2478 143° Southeast  Level FlightAware Approximate
Thu 12:44:00 AM 11.9220 -78.1658 143° Southeast  Level FlightAware Approximate
Thu 12:44:26 AM 11.4100 -77.7660 143° Southeast 488 562 35,000  Level FlightAware ADS-B
Thu 12:44:59 AM 11.3620 -77.7270 141° Southeast 488 562 35,000  Level FlightAware ADS-B
Thu 12:45:00 AM 11.8161 -78.0839 143° Southeast  Level FlightAware Approximate
Thu 12:45:51 AM 11.2710 -77.6570 143° Southeast 488 562 35,000  Level FlightAware ADS-B
Thu 12:46:27 AM 11.2160 -77.6140 143° Southeast 488 562 35,000  Level FlightAware ADS-B
Thu 12:47:03 AM 11.1620 -77.5700 141° Southeast 488 562 35,000  Level FlightAware ADS-B
Thu 12:47:39 AM 11.1070 -77.5270 143° Southeast 488 562 35,000  Level FlightAware ADS-B
Thu 12:48:19 AM 10.9960 -77.4460 144° Southeast 474 545 35,000  Level FlightAware ADS-B
Thu 12:48:54 AM 10.9280 -77.3980 145° Southeast 473 544 35,000  Level FlightAware ADS-B
Thu 12:49:24 AM 10.8660 -77.3710 157° South 472 543 35,000  Level FlightAware ADS-B
Thu 12:50:10 AM 10.7760 -77.3320 157° South 473 544 35,000  Level FlightAware ADS-B
Thu 12:50:57 AM 10.6890 -77.2930 156° South 473 544 35,000  Level FlightAware ADS-B
Thu 12:51:32 AM 10.6090 -77.2610 159° South 480 552 35,000  Level FlightAware ADS-B
Thu 12:52:09 AM 10.5450 -77.2330 157° South 480 552 35,000  Level FlightAware ADS-B
Thu 12:52:45 AM 10.4580 -77.1970 158° South 474 545 35,000  Level FlightAware ADS-B
Thu 12:53:31 AM 10.3650 -77.1580 158° South 469 540 35,000  Level FlightAware ADS-B
Thu 12:54:05 AM 10.2930 -77.1280 158° South 474 545 35,000  Level FlightAware ADS-B
Thu 12:54:40 AM 10.2160 -77.0950 157° South 476 548 35,000  Level FlightAware ADS-B
Thu 12:55:15 AM 10.1460 -77.0650 157° South 485 558 35,000  Level FlightAware ADS-B
Thu 12:56:03 AM 10.0610 -77.0300 158° South 484 557 35,000  Level FlightAware ADS-B
Thu 12:56:40 AM 9.9680 -76.9910 158° South 485 558 35,000  Level FlightAware ADS-B
Thu 12:57:15 AM 9.8980 -76.9550 153° Southeast 484 557 35,000  Level FlightAware ADS-B
Thu 12:57:56 AM 9.8180 -76.9080 150° Southeast 483 556 35,000  Level FlightAware ADS-B
Thu 12:58:31 AM 9.7570 -76.8720 150° Southeast 482 555 35,000  Level FlightAware ADS-B
Thu 12:59:06 AM 9.6940 -76.8340 149° Southeast 473 544 35,000  Level FlightAware ADS-B
Thu 12:59:58 AM 9.5990 -76.7780 150° Southeast 471 542 35,000  Level FlightAware ADS-B
Thu 01:00:42 AM 9.5100 -76.7250 150° Southeast 472 543 35,000  Level FlightAware ADS-B
Thu 01:01:20 AM 9.4500 -76.6870 148° Southeast 472 543 35,000  Level FlightAware ADS-B
Thu 01:01:56 AM 9.3930 -76.6510 148° Southeast 472 543 35,000  Level FlightAware ADS-B
Thu 01:02:33 AM 9.3350 -76.6140 148° Southeast 472 543 35,000  Level FlightAware ADS-B
Thu 01:03:09 AM 9.2780 -76.5780 148° Southeast 472 543 35,000  Level FlightAware ADS-B
Thu 01:03:45 AM 9.2220 -76.5420 148° Southeast 472 543 35,000  Level FlightAware ADS-B
Thu 01:04:22 AM 9.1630 -76.5050 148° Southeast 472 543 35,000  Level FlightAware ADS-B
Thu 01:04:58 AM 9.1070 -76.4690 148° Southeast 472 543 35,000  Level FlightAware ADS-B
Thu 01:05:34 AM 9.0500 -76.4340 149° Southeast 472 543 35,000  Level FlightAware ADS-B
Thu 01:06:10 AM 8.9930 -76.3980 148° Southeast 472 543 35,000  Level FlightAware ADS-B
Thu 01:06:47 AM 8.9350 -76.3610 148° Southeast 472 543 35,000  Level FlightAware ADS-B
Thu 01:07:23 AM 8.8780 -76.3250 148° Southeast 472 543 35,000  Level FlightAware ADS-B
Thu 01:07:59 AM 8.8220 -76.2890 148° Southeast 472 543 35,000  Level FlightAware ADS-B
Thu 01:08:35 AM 8.7650 -76.2530 148° Southeast 472 543 35,000  Level FlightAware ADS-B
Thu 01:09:11 AM 8.7080 -76.2180 149° Southeast 472 543 35,000  Level FlightAware ADS-B
Thu 01:09:48 AM 8.6500 -76.1810 148° Southeast 472 543 35,000  Level FlightAware ADS-B
Thu 01:12:00 AM 8.4313 -75.9851 138° Southeast  Level Estimated
Thu 01:13:00 AM 8.3319 -75.8961 138° Southeast  Level Estimated
Thu 01:14:00 AM 8.2325 -75.8072 138° Southeast  Level Estimated
Thu 01:15:00 AM 8.1330 -75.7183 138° Southeast  Level Estimated
Thu 01:16:00 AM 8.0335 -75.6294 139° Southeast  Level Estimated
Thu 01:16:22 AM 8.1750 -75.0500 139° Southeast 499 574 35,000  Level FlightAware ADS-B
Thu 01:16:32 AM 8.1620 -75.0310 125° Southeast 497 572 35,000  Level FlightAware ADS-B
Thu 01:16:37 AM 8.1550 -75.0200 123° Southeast 497 572 35,000  Level FlightAware ADS-B
Thu 01:16:42 AM 8.1480 -75.0100 125° Southeast 496 571 35,000  Level FlightAware ADS-B
Thu 01:16:52 AM 8.1370 -74.9950 127° Southeast 495 570 35,000  Level FlightAware ADS-B
Thu 01:17:02 AM 8.1260 -74.9790 125° Southeast 494 568 35,000  Level FlightAware ADS-B
Thu 01:17:12 AM 8.1110 -74.9570 125° Southeast 495 570 35,000  Level FlightAware ADS-B
Thu 01:17:27 AM 8.0910 -74.9280 125° Southeast 497 572 35,000  Level FlightAware ADS-B
Thu 01:17:32 AM 8.0850 -74.9190 124° Southeast 496 571 35,000  Level FlightAware ADS-B
Thu 01:17:42 AM 8.0700 -74.8980 126° Southeast 496 571 35,000  Level FlightAware ADS-B
Thu 01:17:47 AM 8.0640 -74.8900 127° Southeast 496 571 35,000  Level FlightAware ADS-B
Thu 01:17:52 AM 8.0620 -74.8850 112° Southeast 496 571 35,000  Level FlightAware ADS-B
Thu 01:18:02 AM 8.0450 -74.8620 127° Southeast 494 568 35,000  Level FlightAware ADS-B
Thu 01:18:07 AM 8.0370 -74.8500 124° Southeast 494 568 35,000  Level FlightAware ADS-B
Thu 01:18:17 AM 8.0240 -74.8310 125° Southeast 494 568 35,000  Level FlightAware ADS-B
Thu 01:18:22 AM 8.0200 -74.8250 124° Southeast 494 568 35,000  Level FlightAware ADS-B
Thu 01:18:27 AM 8.0130 -74.8160 128° Southeast 494 568 35,000  Level FlightAware ADS-B
Thu 01:18:52 AM 7.9850 -74.7760 125° Southeast 494 568 35,000  Level FlightAware ADS-B
Thu 01:18:57 AM 7.9770 -74.7630 122° Southeast 494 568 35,000  Level FlightAware ADS-B
Thu 01:19:27 AM 7.9350 -74.7030 125° Southeast 495 570 35,000  Level FlightAware ADS-B
Thu 01:19:37 AM 7.9190 -74.6810 126° Southeast 494 568 35,000  Level FlightAware ADS-B
Thu 01:19:47 AM 7.9110 -74.6700 126° Southeast 494 568 35,000  Level FlightAware ADS-B
Thu 01:20:02 AM 7.8890 -74.6370 124° Southeast 494 568 35,000  Level FlightAware ADS-B
Thu 01:20:07 AM 7.8790 -74.6230 126° Southeast 494 568 35,000  Level FlightAware ADS-B
Thu 01:20:12 AM 7.8760 -74.6180 121° Southeast 494 568 35,000  Level FlightAware ADS-B
Thu 01:20:22 AM 7.8600 -74.5960 126° Southeast 494 568 35,000  Level FlightAware ADS-B
Thu 01:20:27 AM 7.8540 -74.5860 121° Southeast 494 568 35,000  Level FlightAware ADS-B
Thu 01:20:32 AM 7.8470 -74.5760 125° Southeast 494 568 35,000  Level FlightAware ADS-B
Thu 01:20:42 AM 7.8340 -74.5570 125° Southeast 494 568 35,000  Level FlightAware ADS-B
Thu 01:20:47 AM 7.8270 -74.5480 128° Southeast 494 568 35,000  Level FlightAware ADS-B
Thu 01:21:27 AM 7.7710 -74.4800 130° Southeast 496 571 35,000  Level FlightAware ADS-B
Thu 01:22:02 AM 7.7090 -74.4230 138° Southeast 493 567 35,000  Level FlightAware ADS-B
Thu 01:22:32 AM 7.6580 -74.3760 138° Southeast 490 564 35,000  Level FlightAware ADS-B
Thu 01:22:57 AM 7.6150 -74.3410 141° Southeast 491 565 35,000  Level FlightAware ADS-B
Thu 01:23:37 AM 7.5400 -74.2890 145° Southeast 490 564 35,000  Level FlightAware ADS-B
Thu 01:24:12 AM 7.4790 -74.2370 140° Southeast 489 563 35,000  Level FlightAware ADS-B
Thu 01:24:47 AM 7.4210 -74.1870 139° Southeast 489 563 35,000  Level FlightAware ADS-B
Thu 01:25:22 AM 7.3580 -74.1330 140° Southeast 489 563 35,000  Level FlightAware ADS-B
Thu 01:25:58 AM 7.3100 -74.0900 138° Southeast 489 563 35,000  Level FlightAware ADS-B
Thu 01:26:34 AM 7.2570 -74.0450 140° Southeast 489 563 35,000  Level FlightAware ADS-B
Thu 01:27:15 AM 7.1750 -73.9730 139° Southeast 492 566 35,000  Level FlightAware ADS-B
Thu 01:27:51 AM 7.1220 -73.9270 139° Southeast 492 566 35,000  Level FlightAware ADS-B
Thu 01:28:45 AM 7.0050 -73.8480 146° Southeast 494 568 35,000  Level FlightAware ADS-B
Thu 01:29:22 AM 6.9220 -73.8000 150° Southeast 495 570 35,000  Level FlightAware ADS-B
Thu 01:30:02 AM 6.8440 -73.7480 146° Southeast 498 573 35,000  Level FlightAware ADS-B
Thu 01:30:40 AM 6.7730 -73.7010 147° Southeast 497 572 35,000  Level FlightAware ADS-B
Thu 01:31:16 AM 6.7020 -73.6530 146° Southeast 497 572 35,000  Level FlightAware ADS-B
Thu 01:31:47 AM 6.6430 -73.6140 147° Southeast 497 572 35,000  Level FlightAware ADS-B
Thu 01:32:24 AM 6.5710 -73.5660 146° Southeast 496 571 35,000  Level FlightAware ADS-B
Thu 01:33:00 AM 6.5020 -73.5210 147° Southeast 494 568 35,000  Level FlightAware ADS-B
Thu 01:33:36 AM 6.4330 -73.4750 146° Southeast 494 568 35,000  Level FlightAware ADS-B
Thu 01:34:07 AM 6.3740 -73.4350 146° Southeast 495 570 35,000  Level FlightAware ADS-B
Thu 01:34:43 AM 6.3070 -73.3910 147° Southeast 494 568 35,000  Level FlightAware ADS-B
Thu 01:35:19 AM 6.2370 -73.3440 146° Southeast 494 568 35,000  Level FlightAware ADS-B
Thu 01:36:13 AM 6.1410 -73.2800 146° Southeast 496 571 35,000  Level FlightAware ADS-B
Thu 01:36:50 AM 6.0810 -73.2390 146° Southeast 496 571 35,000  Level FlightAware ADS-B
Thu 01:37:26 AM 6.0230 -73.2000 146° Southeast 496 571 35,000  Level FlightAware ADS-B
Thu 01:38:00 AM 5.9680 -73.1630 146° Southeast 496 571 35,000  Level FlightAware ADS-B
Thu 01:38:36 AM 5.9100 -73.1230 146° Southeast 496 571 35,000  Level FlightAware ADS-B
Thu 01:39:13 AM 5.8500 -73.0830 146° Southeast 496 571 35,000  Level FlightAware ADS-B
Thu 01:39:49 AM 5.7910 -73.0430 146° Southeast 496 571 35,000  Level FlightAware ADS-B
Thu 01:40:25 AM 5.7330 -73.0040 146° Southeast 496 571 35,000  Level FlightAware ADS-B
Thu 01:41:02 AM 5.5770 -72.9070 148° Southeast 497 572 35,000  Level FlightAware ADS-B
Thu 01:41:37 AM 5.5120 -72.8640 147° Southeast 494 568 35,000  Level FlightAware ADS-B
Thu 01:42:12 AM 5.4430 -72.8190 147° Southeast 494 568 35,000  Level FlightAware ADS-B
Thu 01:42:46 AM 5.3780 -72.7750 146° Southeast 492 566 35,000  Level FlightAware ADS-B
Thu 01:43:23 AM 5.3090 -72.7300 147° Southeast 493 567 35,000  Level FlightAware ADS-B
Thu 01:43:58 AM 5.2420 -72.6850 146° Southeast 495 570 35,000  Level FlightAware ADS-B
Thu 01:44:32 AM 5.1880 -72.6490 146° Southeast 495 570 35,000  Level FlightAware ADS-B
Thu 01:45:08 AM 5.1300 -72.6090 146° Southeast 495 570 35,000  Level FlightAware ADS-B
Thu 01:45:44 AM 5.0720 -72.5700 146° Southeast 495 570 35,000  Level FlightAware ADS-B
Thu 01:46:20 AM 5.0130 -72.5310 147° Southeast 495 570 35,000  Level FlightAware ADS-B
Thu 01:46:57 AM 4.9540 -72.4900 145° Southeast 495 570 35,000  Level FlightAware ADS-B
Thu 01:47:33 AM 4.8960 -72.4510 146° Southeast 495 570 35,000  Level FlightAware ADS-B
Thu 01:48:09 AM 4.8380 -72.4120 146° Southeast 495 570 35,000  Level FlightAware ADS-B
Thu 01:48:45 AM 4.7790 -72.3720 146° Southeast 495 570 35,000  Level FlightAware ADS-B
Thu 01:49:21 AM 4.7210 -72.3330 146° Southeast 495 570 35,000  Level FlightAware ADS-B
Thu 01:49:58 AM 4.6620 -72.2930 146° Southeast 495 570 35,000  Level FlightAware ADS-B
Thu 01:50:34 AM 4.6040 -72.2530 145° Southeast 495 570 35,000  Level FlightAware ADS-B
Thu 01:51:10 AM 4.5450 -72.2140 147° Southeast 495 570 35,000  Level FlightAware ADS-B
Thu 01:51:47 AM 4.4860 -72.1740 146° Southeast 495 570 35,000  Level FlightAware ADS-B
Thu 01:52:23 AM 4.4280 -72.1340 145° Southeast 495 570 35,000  Level FlightAware ADS-B
Thu 01:53:00 AM 4.3680 -72.0940 146° Southeast 495 570 35,000  Level FlightAware ADS-B
Thu 01:53:36 AM 4.3100 -72.0550 146° Southeast 495 570 35,000  Level FlightAware ADS-B
Thu 01:56:00 AM 4.0688 -71.8461 139° Southeast  Level Estimated
Thu 01:57:00 AM 3.9683 -71.7591 139° Southeast  Level Estimated
Thu 01:58:00 AM 3.8677 -71.6722 139° Southeast  Level Estimated
Thu 01:59:00 AM 3.7672 -71.5852 139° Southeast  Level Estimated
Thu 02:00:00 AM 3.6666 -71.4983 139° Southeast  Level Estimated
Thu 02:01:00 AM 3.5661 -71.4114 139° Southeast  Level Estimated
Thu 02:02:00 AM 3.4655 -71.3245 139° Southeast  Level Estimated
Thu 02:03:00 AM 3.3649 -71.2376 139° Southeast  Level Estimated
Thu 02:04:00 AM 3.2644 -71.1508 139° Southeast  Level Estimated
Thu 02:05:00 AM 3.1638 -71.0639 139° Southeast  Level Estimated
Thu 02:06:00 AM 3.0632 -70.9771 139° Southeast  Level Estimated
Thu 02:07:00 AM 2.9626 -70.8903 139° Southeast  Level Estimated
Thu 02:08:00 AM 2.8620 -70.8036 139° Southeast  Level Estimated
Thu 02:09:00 AM 2.7613 -70.7168 139° Southeast  Level Estimated
Thu 02:10:00 AM 2.6607 -70.6300 139° Southeast  Level Estimated
Thu 02:11:00 AM 2.5601 -70.5433 139° Southeast  Level Estimated
Thu 02:12:00 AM 2.4595 -70.4566 139° Southeast  Level Estimated
Thu 02:13:00 AM 2.3588 -70.3699 139° Southeast  Level Estimated
Thu 02:14:00 AM 2.2582 -70.2831 139° Southeast  Level Estimated
Thu 02:15:00 AM 2.1575 -70.1965 139° Southeast  Level Estimated
Thu 02:16:00 AM 2.0569 -70.1098 139° Southeast  Level Estimated
Thu 02:17:00 AM 1.9562 -70.0231 139° Southeast  Level Estimated
Thu 02:18:00 AM 1.8555 -69.9364 139° Southeast  Level Estimated
Thu 02:19:00 AM 1.7549 -69.8498 139° Southeast  Level Estimated
Thu 02:20:00 AM 1.6542 -69.7632 139° Southeast  Level Estimated
Thu 02:21:00 AM 1.5535 -69.6765 139° Southeast  Level Estimated
Thu 02:22:00 AM 1.4528 -69.5899 139° Southeast  Level Estimated
Thu 02:23:00 AM 1.3521 -69.5033 139° Southeast  Level Estimated
Thu 02:24:00 AM 1.2515 -69.4167 139° Southeast  Level Estimated
Thu 02:25:00 AM 1.1508 -69.3301 139° Southeast  Level Estimated
Thu 02:26:00 AM 1.0501 -69.2435 139° Southeast  Level Estimated
Thu 02:27:00 AM 0.9494 -69.1569 139° Southeast  Level Estimated
Thu 02:28:00 AM 0.8487 -69.0703 139° Southeast  Level Estimated
Thu 02:29:00 AM 0.7480 -68.9838 139° Southeast  Level Estimated
Thu 02:30:00 AM 0.6473 -68.8972 139° Southeast  Level Estimated
Thu 02:31:00 AM 0.5466 -68.8106 139° Southeast  Level Estimated
Thu 02:32:00 AM 0.4459 -68.7241 139° Southeast  Level Estimated
Thu 02:33:00 AM 0.3452 -68.6375 139° Southeast  Level Estimated
Thu 02:34:00 AM 0.2445 -68.5509 139° Southeast  Level Estimated
Thu 02:35:00 AM 0.1438 -68.4644 139° Southeast  Level Estimated
Thu 02:36:00 AM 0.0431 -68.3778 139° Southeast  Level Estimated
Thu 02:37:00 AM -0.0576 -68.2913 139° Southeast  Level Estimated
Thu 02:38:00 AM -0.1584 -68.2047 139° Southeast  Level Estimated
Thu 02:39:00 AM -0.2591 -68.1181 139° Southeast  Level Estimated
Thu 02:40:00 AM -0.3598 -68.0316 139° Southeast  Level Estimated
Thu 02:41:00 AM -0.4605 -67.9450 139° Southeast  Level Estimated
Thu 02:42:00 AM -0.5612 -67.8584 139° Southeast  Level Estimated
Thu 02:43:00 AM -0.6619 -67.7719 139° Southeast  Level Estimated
Thu 02:44:00 AM -0.7626 -67.6853 139° Southeast  Level Estimated
Thu 02:45:00 AM -0.8633 -67.5987 139° Southeast  Level Estimated
Thu 02:46:00 AM -0.9640 -67.5121 139° Southeast  Level Estimated
Thu 02:47:00 AM -1.0647 -67.4256 139° Southeast  Level Estimated
Thu 02:48:00 AM -1.1654 -67.3390 139° Southeast  Level Estimated
Thu 02:49:00 AM -1.2660 -67.2524 139° Southeast  Level Estimated
Thu 02:50:00 AM -1.3667 -67.1657 139° Southeast  Level Estimated
Thu 02:51:00 AM -1.4674 -67.0791 139° Southeast  Level Estimated
Thu 02:52:00 AM -1.5681 -66.9925 139° Southeast  Level Estimated
Thu 02:53:00 AM -1.6688 -66.9059 139° Southeast  Level Estimated
Thu 02:54:00 AM -1.7694 -66.8193 139° Southeast  Level Estimated
Thu 02:55:00 AM -1.8701 -66.7326 139° Southeast  Level Estimated
Thu 02:56:00 AM -1.9708 -66.6459 139° Southeast  Level Estimated
Thu 02:57:00 AM -2.0714 -66.5593 139° Southeast  Level Estimated
Thu 02:58:00 AM -2.1721 -66.4726 139° Southeast  Level Estimated
Thu 02:59:00 AM -2.2727 -66.3859 139° Southeast  Level Estimated
Thu 03:00:00 AM -2.3734 -66.2992 139° Southeast  Level Estimated
Thu 03:01:00 AM -2.4740 -66.2125 139° Southeast  Level Estimated
Thu 03:02:00 AM -2.5747 -66.1257 139° Southeast  Level Estimated
Thu 03:03:00 AM -2.6753 -66.0390 139° Southeast  Level Estimated
Thu 03:04:00 AM -2.7759 -65.9522 139° Southeast  Level Estimated
Thu 03:05:00 AM -2.8765 -65.8655 139° Southeast  Level Estimated
Thu 03:06:00 AM -2.9771 -65.7787 139° Southeast  Level Estimated
Thu 03:07:00 AM -3.0777 -65.6919 139° Southeast  Level Estimated
Thu 03:08:00 AM -3.1783 -65.6051 139° Southeast  Level Estimated
Thu 03:09:00 AM -3.2789 -65.5182 139° Southeast  Level Estimated
Thu 03:10:00 AM -3.3795 -65.4314 139° Southeast  Level Estimated
Thu 03:11:00 AM -3.4801 -65.3445 139° Southeast  Level Estimated
Thu 03:12:00 AM -3.5807 -65.2576 139° Southeast  Level Estimated
Thu 03:13:00 AM -3.6812 -65.1707 139° Southeast  Level Estimated
Thu 03:14:00 AM -3.7818 -65.0838 139° Southeast  Level Estimated
Thu 03:15:00 AM -3.8823 -64.9968 139° Southeast  Level Estimated
Thu 03:16:00 AM -3.9828 -64.9099 139° Southeast  Level Estimated
Thu 03:17:00 AM -4.0834 -64.8229 139° Southeast  Level Estimated
Thu 03:18:00 AM -4.1839 -64.7359 139° Southeast  Level Estimated
Thu 03:19:00 AM -4.2844 -64.6488 139° Southeast  Level Estimated
Thu 03:20:00 AM -4.3849 -64.5618 139° Southeast  Level Estimated
Thu 03:21:00 AM -4.4853 -64.4747 139° Southeast  Level Estimated
Thu 03:22:00 AM -4.5858 -64.3876 139° Southeast  Level Estimated
Thu 03:23:00 AM -4.6863 -64.3005 139° Southeast  Level Estimated
Thu 03:24:00 AM -4.7867 -64.2133 139° Southeast  Level Estimated
Thu 03:25:00 AM -4.8871 -64.1261 139° Southeast  Level Estimated
Thu 03:26:00 AM -4.9876 -64.0389 139° Southeast  Level Estimated
Thu 03:27:00 AM -5.0880 -63.9517 139° Southeast  Level Estimated
Thu 03:28:00 AM -5.1884 -63.8644 139° Southeast  Level Estimated
Thu 03:29:00 AM -5.2888 -63.7771 139° Southeast  Level Estimated
Thu 03:30:00 AM -5.3892 -63.6898 139° Southeast  Level Estimated
Thu 03:31:00 AM -5.4896 -63.6025 139° Southeast  Level Estimated
Thu 03:32:00 AM -5.5899 -63.5151 139° Southeast  Level Estimated
Thu 03:33:00 AM -5.6902 -63.4277 139° Southeast  Level Estimated
Thu 03:34:00 AM -5.7906 -63.3403 139° Southeast  Level Estimated
Thu 03:35:00 AM -5.8909 -63.2528 139° Southeast  Level Estimated
Thu 03:36:00 AM -5.9912 -63.1653 139° Southeast  Level Estimated
Thu 03:37:00 AM -6.0915 -63.0778 139° Southeast  Level Estimated
Thu 03:38:00 AM -6.1918 -62.9902 139° Southeast  Level Estimated
Thu 03:39:00 AM -6.2920 -62.9026 139° Southeast  Level Estimated
Thu 03:40:00 AM -6.3923 -62.8150 139° Southeast  Level Estimated
Thu 03:41:00 AM -6.4925 -62.7273 139° Southeast  Level Estimated
Thu 03:42:00 AM -6.5927 -62.6396 139° Southeast  Level Estimated
Thu 03:43:00 AM -6.6929 -62.5519 139° Southeast  Level Estimated
Thu 03:44:00 AM -6.7931 -62.4641 139° Southeast  Level Estimated
Thu 03:45:00 AM -6.8933 -62.3763 139° Southeast  Level Estimated
Thu 03:46:00 AM -6.9934 -62.2885 139° Southeast  Level Estimated
Thu 03:47:00 AM -7.0936 -62.2006 139° Southeast  Level Estimated
Thu 03:48:00 AM -7.1937 -62.1127 139° Southeast  Level Estimated
Thu 03:49:00 AM -7.2938 -62.0247 139° Southeast  Level Estimated
Thu 03:50:00 AM -7.3939 -61.9367 139° Southeast  Level Estimated
Thu 03:51:00 AM -7.4939 -61.8487 139° Southeast  Level Estimated
Thu 03:52:00 AM -7.5940 -61.7606 139° Southeast  Level Estimated
Thu 03:53:00 AM -7.6940 -61.6725 139° Southeast  Level Estimated
Thu 03:54:00 AM -7.7940 -61.5843 139° Southeast  Level Estimated
Thu 03:55:00 AM -7.8939 -61.4963 139° Southeast  Level Estimated
Thu 03:56:00 AM -7.9937 -61.4082 139° Southeast  Level Estimated
Thu 03:57:00 AM -8.0934 -61.3200 139° Southeast  Level Estimated
Thu 03:58:00 AM -8.1932 -61.2319 139° Southeast  Level Estimated
Thu 03:59:00 AM -8.2929 -61.1437 139° Southeast  Level Estimated
Thu 04:00:00 AM -8.3927 -61.0554 139° Southeast  Level Estimated
Thu 04:01:00 AM -8.4924 -60.9671 139° Southeast  Level Estimated
Thu 04:02:00 AM -8.5921 -60.8787 139° Southeast  Level Estimated
Thu 04:03:00 AM -8.6917 -60.7903 139° Southeast  Level Estimated
Thu 04:04:00 AM -8.7914 -60.7019 139° Southeast  Level Estimated
Thu 04:05:00 AM -8.8910 -60.6134 139° Southeast  Level Estimated
Thu 04:06:00 AM -8.9906 -60.5248 139° Southeast  Level Estimated
Thu 04:07:00 AM -9.0902 -60.4362 139° Southeast  Level Estimated
Thu 04:08:00 AM -9.1898 -60.3476 139° Southeast  Level Estimated
Thu 04:09:00 AM -9.2893 -60.2589 139° Southeast  Level Estimated
Thu 04:10:00 AM -9.3888 -60.1702 139° Southeast  Level Estimated
Thu 04:11:00 AM -9.4883 -60.0814 139° Southeast  Level Estimated
Thu 04:12:00 AM -9.5878 -59.9925 139° Southeast  Level Estimated
Thu 04:13:00 AM -9.6872 -59.9036 139° Southeast  Level Estimated
Thu 04:14:00 AM -9.7867 -59.8147 139° Southeast  Level Estimated
Thu 04:15:00 AM -9.8861 -59.7257 139° Southeast  Level Estimated
Thu 04:16:00 AM -9.9854 -59.6366 139° Southeast  Level Estimated
Thu 04:17:00 AM -10.0848 -59.5475 139° Southeast  Level Estimated
Thu 04:18:00 AM -10.1841 -59.4583 139° Southeast  Level Estimated
Thu 04:19:00 AM -10.2835 -59.3691 139° Southeast  Level Estimated
Thu 04:20:00 AM -10.3827 -59.2798 139° Southeast  Level Estimated
Thu 04:21:00 AM -10.4820 -59.1905 138° Southeast  Level Estimated
Thu 04:22:00 AM -10.5812 -59.1011 138° Southeast  Level Estimated
Thu 04:23:00 AM -10.6805 -59.0117 138° Southeast  Level Estimated
Thu 04:24:00 AM -10.7796 -58.9221 138° Southeast  Level Estimated
Thu 04:25:00 AM -10.8788 -58.8326 138° Southeast  Level Estimated
Thu 04:26:00 AM -10.9779 -58.7430 138° Southeast  Level Estimated
Thu 04:27:00 AM -11.0770 -58.6533 138° Southeast  Level Estimated
Thu 04:28:00 AM -11.1761 -58.5635 138° Southeast  Level Estimated
Thu 04:29:00 AM -11.2752 -58.4737 138° Southeast  Level Estimated
Thu 04:30:00 AM -11.3742 -58.3838 138° Southeast  Level Estimated
Thu 04:31:00 AM -11.4732 -58.2939 138° Southeast  Level Estimated
Thu 04:32:00 AM -11.5722 -58.2039 138° Southeast  Level Estimated
Thu 04:33:00 AM -11.6711 -58.1138 138° Southeast  Level Estimated
Thu 04:34:00 AM -11.7700 -58.0237 138° Southeast  Level Estimated
Thu 04:35:00 AM -11.8689 -57.9335 138° Southeast  Level Estimated
Thu 04:36:00 AM -11.9678 -57.8433 138° Southeast  Level Estimated
Thu 04:37:00 AM -12.0666 -57.7529 138° Southeast  Level Estimated
Thu 04:38:00 AM -12.1654 -57.6626 138° Southeast  Level Estimated
Thu 04:39:00 AM -12.2642 -57.5721 138° Southeast  Level Estimated
Thu 04:40:00 AM -12.3629 -57.4816 138° Southeast  Level Estimated
Thu 04:41:00 AM -12.4616 -57.3910 138° Southeast  Level Estimated
Thu 04:42:00 AM -12.5603 -57.3003 138° Southeast  Level Estimated
Thu 04:43:00 AM -12.6589 -57.2096 138° Southeast  Level Estimated
Thu 04:44:00 AM -12.7576 -57.1188 138° Southeast  Level Estimated
Thu 04:45:00 AM -12.8562 -57.0279 138° Southeast  Level Estimated
Thu 04:46:00 AM -12.9547 -56.9370 138° Southeast  Level Estimated
Thu 04:47:00 AM -13.0533 -56.8460 138° Southeast  Level Estimated
Thu 04:48:00 AM -13.1517 -56.7549 138° Southeast  Level Estimated
Thu 04:49:00 AM -13.2502 -56.6637 138° Southeast  Level Estimated
Thu 04:50:00 AM -13.3486 -56.5725 138° Southeast  Level Estimated
Thu 04:51:00 AM -13.4470 -56.4812 138° Southeast  Level Estimated
Thu 04:52:00 AM -13.5454 -56.3898 138° Southeast  Level Estimated
Thu 04:53:00 AM -13.6437 -56.2983 138° Southeast  Level Estimated
Thu 04:54:00 AM -13.7420 -56.2068 138° Southeast  Level Estimated
Thu 04:55:00 AM -13.8403 -56.1152 138° Southeast  Level Estimated
Thu 04:56:00 AM -13.9385 -56.0235 138° Southeast  Level Estimated
Thu 04:57:00 AM -14.0367 -55.9317 138° Southeast  Level Estimated
Thu 04:58:00 AM -14.1349 -55.8399 138° Southeast  Level Estimated
Thu 04:59:00 AM -14.2330 -55.7480 138° Southeast  Level Estimated
Thu 05:00:00 AM -14.3311 -55.6559 138° Southeast  Level Estimated
Thu 05:01:00 AM -14.4292 -55.5639 138° Southeast  Level Estimated
Thu 05:02:00 AM -14.5272 -55.4717 138° Southeast  Level Estimated
Thu 05:03:00 AM -14.6252 -55.3794 138° Southeast  Level Estimated
Thu 05:04:00 AM -14.7231 -55.2871 138° Southeast  Level Estimated
Thu 05:05:00 AM -14.8210 -55.1947 138° Southeast  Level Estimated
Thu 05:06:00 AM -14.9189 -55.1022 138° Southeast  Level Estimated
Thu 05:07:00 AM -15.0167 -55.0096 138° Southeast  Level Estimated
Thu 05:08:00 AM -15.1145 -54.9169 138° Southeast  Level Estimated
Thu 05:09:00 AM -15.2123 -54.8242 138° Southeast  Level Estimated
Thu 05:10:00 AM -15.3100 -54.7313 138° Southeast  Level Estimated
Thu 05:11:00 AM -15.4077 -54.6384 137° Southeast  Level Estimated
Thu 05:12:00 AM -15.5054 -54.5454 137° Southeast  Level Estimated
Thu 05:13:00 AM -15.6030 -54.4523 137° Southeast  Level Estimated
Thu 05:14:00 AM -15.7005 -54.3591 137° Southeast  Level Estimated
Thu 05:15:00 AM -15.7981 -54.2658 137° Southeast  Level Estimated
Thu 05:16:00 AM -15.8956 -54.1725 137° Southeast  Level Estimated
Thu 05:17:00 AM -15.9930 -54.0790 137° Southeast  Level Estimated
Thu 05:18:00 AM -16.0904 -53.9855 137° Southeast  Level Estimated
Thu 05:19:00 AM -16.1878 -53.8918 137° Southeast  Level Estimated
Thu 05:20:00 AM -16.2851 -53.7981 137° Southeast  Level Estimated
Thu 05:21:00 AM -16.3824 -53.7043 137° Southeast  Level Estimated
Thu 05:22:00 AM -16.4797 -53.6103 137° Southeast  Level Estimated
Thu 05:23:00 AM -16.5769 -53.5163 137° Southeast  Level Estimated
Thu 05:24:00 AM -16.6740 -53.4222 137° Southeast  Level Estimated
Thu 05:25:00 AM -16.7711 -53.3280 137° Southeast  Level Estimated
Thu 05:26:00 AM -16.8682 -53.2337 137° Southeast  Level Estimated
Thu 05:27:00 AM -16.9652 -53.1393 137° Southeast  Level Estimated
Thu 05:28:00 AM -17.0622 -53.0448 137° Southeast  Level Estimated
Thu 05:29:00 AM -17.1592 -52.9502 137° Southeast  Level Estimated
Thu 05:30:00 AM -17.2561 -52.8555 137° Southeast  Level Estimated
Thu 05:31:00 AM -17.3529 -52.7607 137° Southeast  Level Estimated
Thu 05:32:00 AM -17.4497 -52.6658 137° Southeast  Level Estimated
Thu 05:33:00 AM -17.5465 -52.5709 137° Southeast  Level Estimated
Thu 05:34:00 AM -17.6432 -52.4757 137° Southeast  Level Estimated
Thu 05:35:00 AM -17.7399 -52.3806 137° Southeast  Level Estimated
Thu 05:36:00 AM -17.8365 -52.2853 137° Southeast  Level Estimated
Thu 05:37:00 AM -17.9331 -52.1898 137° Southeast  Level Estimated
Thu 05:38:00 AM -18.0296 -52.0943 137° Southeast  Level Estimated
Thu 05:39:00 AM -18.1261 -51.9987 137° Southeast  Level Estimated
Thu 05:40:00 AM -18.2226 -51.9030 137° Southeast  Level Estimated
Thu 05:41:00 AM -18.3190 -51.8072 137° Southeast  Level Estimated
Thu 05:42:00 AM -18.4153 -51.7113 137° Southeast  Level Estimated
Thu 05:42:30 AM -19.0720 -50.5940 137° Southeast 483 556 35,000  Level FlightAware ADS-B
Thu 05:43:00 AM -18.5116 -51.6152 137° Southeast  Level Estimated
Thu 05:43:02 AM -19.1210 -50.5400 134° Southeast 483 556 35,000  Level FlightAware ADS-B
Thu 05:43:38 AM -19.1760 -50.4810 135° Southeast 484 557 35,000  Level FlightAware ADS-B
Thu 05:44:14 AM -19.2350 -50.4170 134° Southeast 484 557 35,000  Level FlightAware ADS-B
Thu 05:44:48 AM -19.2870 -50.3600 134° Southeast 484 557 35,000  Level FlightAware ADS-B
Thu 05:45:22 AM -19.3390 -50.3030 134° Southeast 484 557 35,000  Level FlightAware ADS-B
Thu 05:45:56 AM -19.3930 -50.2440 134° Southeast 485 558 35,000  Level FlightAware ADS-B
Thu 05:46:32 AM -19.4500 -50.1830 135° Southeast 485 558 35,000  Level FlightAware ADS-B
Thu 05:47:04 AM -19.4970 -50.1310 134° Southeast 485 558 35,000  Level FlightAware ADS-B
Thu 05:47:44 AM -19.5610 -50.0610 134° Southeast 485 558 35,000  Level FlightAware ADS-B
Thu 05:48:16 AM -19.6120 -50.0050 134° Southeast 485 558 35,000  Level FlightAware ADS-B
Thu 05:48:48 AM -19.6620 -49.9510 135° Southeast 484 557 35,000  Level FlightAware ADS-B
Thu 05:49:27 AM -19.7220 -49.8840 134° Southeast 484 557 35,000  Level FlightAware ADS-B
Thu 05:50:02 AM -19.7760 -49.8250 134° Southeast 484 557 35,000  Level FlightAware ADS-B
Thu 05:50:38 AM -19.8330 -49.7630 134° Southeast 485 558 35,000  Level FlightAware ADS-B
Thu 05:51:15 AM -19.8890 -49.7010 134° Southeast 485 558 35,000  Level FlightAware ADS-B
Thu 05:51:46 AM -19.9390 -49.6460 134° Southeast 484 557 35,000  Level FlightAware ADS-B
Thu 05:52:23 AM -19.9960 -49.5840 134° Southeast 483 556 35,000  Level FlightAware ADS-B
Thu 05:52:58 AM -20.0510 -49.5230 134° Southeast 485 558 35,000  Level FlightAware ADS-B
Thu 05:53:34 AM -20.1070 -49.4610 134° Southeast 485 558 35,000  Level FlightAware ADS-B
Thu 05:54:06 AM -20.1560 -49.4070 134° Southeast 486 559 35,000  Level FlightAware ADS-B
Thu 05:54:42 AM -20.2130 -49.3440 134° Southeast 486 559 35,000  Level FlightAware ADS-B
Thu 05:55:19 AM -20.2700 -49.2800 134° Southeast 487 560 35,000  Level FlightAware ADS-B
Thu 05:55:51 AM -20.3210 -49.2240 134° Southeast 488 562 35,000  Level FlightAware ADS-B
Thu 05:56:25 AM -20.3740 -49.1640 133° Southeast 488 562 35,000  Level FlightAware ADS-B
Thu 05:57:05 AM -20.4370 -49.0950 134° Southeast 488 562 35,000  Level FlightAware ADS-B
Thu 05:57:37 AM -20.4870 -49.0390 134° Southeast 488 562 35,000  Level FlightAware ADS-B
Thu 05:58:13 AM -20.5430 -48.9770 134° Southeast 488 562 35,000  Level FlightAware ADS-B
Thu 05:58:45 AM -20.5910 -48.9230 134° Southeast 488 562 35,000  Level FlightAware ADS-B
Thu 05:59:22 AM -20.6520 -48.8560 134° Southeast 489 563 35,000  Level FlightAware ADS-B
Thu 05:59:59 AM -20.7070 -48.7930 133° Southeast 489 563 35,000  Level FlightAware ADS-B
Thu 06:00:32 AM -20.7600 -48.7340 134° Southeast 490 564 35,000  Level FlightAware ADS-B
Thu 06:01:06 AM -20.8140 -48.6740 134° Southeast 490 564 35,000  Level FlightAware ADS-B
Thu 06:01:42 AM -20.8710 -48.6110 134° Southeast 490 564 35,000  Level FlightAware ADS-B
Thu 06:02:18 AM -20.9310 -48.5520 137° Southeast 488 562 35,000  Level FlightAware ADS-B
Thu 06:02:55 AM -20.9940 -48.4950 140° Southeast 489 563 35,000  Level FlightAware ADS-B
Thu 06:03:26 AM -21.0490 -48.4470 141° Southeast 489 563 35,000  Level FlightAware ADS-B
Thu 06:04:00 AM -21.1090 -48.3950 141° Southeast 489 563 35,000  Level FlightAware ADS-B
Thu 06:04:38 AM -21.1750 -48.3370 141° Southeast 489 563 35,000  Level FlightAware ADS-B
Thu 06:05:10 AM -21.2330 -48.2880 142° Southeast 489 563 35,000  Level FlightAware ADS-B
Thu 06:05:46 AM -21.2960 -48.2330 141° Southeast 489 563 35,000  Level FlightAware ADS-B
Thu 06:06:22 AM -21.3580 -48.1780 140° Southeast 491 565 35,000  Level FlightAware ADS-B
Thu 06:06:58 AM -21.4220 -48.1220 141° Southeast 490 564 35,000  Level FlightAware ADS-B
Thu 06:07:32 AM -21.4820 -48.0700 141° Southeast 490 564 35,000  Level FlightAware ADS-B
Thu 06:08:06 AM -21.5420 -48.0170 141° Southeast 490 564 35,000  Level FlightAware ADS-B
Thu 06:08:42 AM -21.6040 -47.9620 140° Southeast 490 564 35,000  Level FlightAware ADS-B
Thu 06:09:18 AM -21.6680 -47.9060 141° Southeast 490 564 35,000 -86 Level FlightAware ADS-B
Thu 06:09:52 AM -21.7280 -47.8530 141° Southeast 488 562 34,900 -600 Descending FlightAware ADS-B
Thu 06:10:28 AM -21.7910 -47.7970 140° Southeast 487 560 34,300 -1,333 Descending FlightAware ADS-B
Thu 06:11:04 AM -21.8530 -47.7420 141° Southeast 494 568 33,300 -1,455 Descending FlightAware ADS-B
Thu 06:11:34 AM -21.9060 -47.6950 141° Southeast 496 571 32,700 -1,391 Descending FlightAware ADS-B
Thu 06:12:13 AM -21.9750 -47.6340 141° Southeast 488 562 31,700 -1,737 Descending FlightAware ADS-B
Thu 06:12:50 AM -22.0390 -47.5780 141° Southeast 478 550 30,500 -2,000 Descending FlightAware ADS-B
Thu 06:13:22 AM -22.0950 -47.5290 141° Southeast 470 541 29,400 -2,029 Descending FlightAware ADS-B
Thu 06:13:58 AM -22.1550 -47.4750 140° Southeast 470 541 28,200 -1,917 Descending FlightAware ADS-B
Thu 06:14:34 AM -22.2150 -47.4210 140° Southeast 463 533 27,100 -1,853 Descending FlightAware ADS-B
Thu 06:15:06 AM -22.2660 -47.3760 141° Southeast 453 521 26,100 -1,853 Descending FlightAware ADS-B
Thu 06:15:42 AM -22.3230 -47.3250 140° Southeast 445 512 25,000 -1,865 Descending FlightAware ADS-B
Thu 06:16:20 AM -22.3840 -47.2700 140° Southeast 434 499 23,800 -1,886 Descending FlightAware ADS-B
Thu 06:16:52 AM -22.4330 -47.2270 141° Southeast 425 489 22,800 -1,765 Descending FlightAware ADS-B
Thu 06:17:28 AM -22.4870 -47.1780 140° Southeast 416 479 21,800 -1,750 Descending FlightAware ADS-B
Thu 06:18:04 AM -22.5400 -47.1310 141° Southeast 406 467 20,700 -1,739 Descending FlightAware ADS-B
Thu 06:18:37 AM -22.5880 -47.0950 145° Southeast 397 457 19,800 -1,636 Descending FlightAware ADS-B
Thu 06:19:10 AM -22.6440 -47.0690 157° South 402 463 18,900 -1,690 Descending FlightAware ADS-B
Thu 06:19:48 AM -22.7110 -47.0410 159° South 406 467 17,800 -1,760 Descending FlightAware ADS-B
Thu 06:20:25 AM -22.7770 -47.0140 159° South 404 465 16,700 -1,826 Descending FlightAware ADS-B
Thu 06:20:57 AM -22.8330 -46.9910 159° South 396 456 15,700 -1,886 Descending FlightAware ADS-B
Thu 06:21:35 AM -22.8960 -46.9640 158° South 376 433 14,500 -2,057 Descending FlightAware ADS-B
Thu 06:22:07 AM -22.9470 -46.9420 158° South 355 409 13,300 -2,029 Descending FlightAware ADS-B
Thu 06:22:43 AM -23.0000 -46.9200 159° South 320 368 12,200 -1,765 Descending FlightAware ADS-B
Thu 06:23:15 AM -23.0420 -46.9020 158° South 296 341 11,300 -1,478 Descending FlightAware ADS-B
Thu 06:23:52 AM -23.0870 -46.8840 160° South 265 305 10,500 -811 Descending FlightAware ADS-B
Thu 06:24:29 AM -23.1260 -46.8670 158° South 235 270 10,300 -462 Descending FlightAware ADS-B
Thu 06:24:57 AM -23.1540 -46.8550 158° South 231 266 10,000 -632 Descending FlightAware ADS-B
Thu 06:25:07 AM -23.1640 -46.8510 160° South 227 261 9,900 -938 Descending FlightAware ADS-B
Thu 06:25:29 AM -23.1850 -46.8420 158° South 227 261 9,500 -857 Descending FlightAware ADS-B
Thu 06:25:49 AM -23.2040 -46.8340 159° South 229 264 9,300 -818 Descending FlightAware ADS-B
Thu 06:26:13 AM -23.2280 -46.8240 159° South 232 267 8,900 -818 Descending FlightAware ADS-B
Thu 06:26:33 AM -23.2490 -46.8150 159° South 227 261 8,700 -706 Descending FlightAware ADS-B
Thu 06:26:47 AM -23.2620 -46.8090 157° South 226 260 8,500 -789 Descending FlightAware ADS-B
Thu 06:27:11 AM -23.2860 -46.7990 159° South 225 259 8,200 -818 Descending FlightAware ADS-B
Thu 06:27:31 AM -23.3060 -46.7910 160° South 224 258 7,900 -900 Descending FlightAware ADS-B
Thu 06:27:51 AM -23.3250 -46.7830 159° South 223 257 7,600 -833 Descending FlightAware ADS-B
Thu 06:28:07 AM -23.3400 -46.7760 157° South 225 259 7,400 -1,000 Descending FlightAware ADS-B
Thu 06:28:27 AM -23.3600 -46.7680 160° South 226 260 7,000 -1,105 Descending FlightAware ADS-B
Thu 06:28:45 AM -23.3760 -46.7580 150° Southeast 224 258 6,700 -900 Descending FlightAware ADS-B
Thu 06:29:07 AM -23.3940 -46.7430 143° Southeast 226 260 6,400 -857 Descending FlightAware ADS-B
Thu 06:29:27 AM -23.4100 -46.7280 139° Southeast 227 261 6,100 -955 Descending FlightAware ADS-B
Thu 06:29:51 AM -23.4290 -46.7100 139° Southeast 225 259 5,700 -955 Descending FlightAware ADS-B
Thu 06:30:11 AM -23.4450 -46.6940 137° Southeast 224 258 5,400 -882 Descending FlightAware ADS-B
Thu 06:30:25 AM -23.4530 -46.6810 124° Southeast 222 255 5,200 -882 Descending FlightAware ADS-B
Thu 06:30:45 AM -23.4620 -46.6600 115° Southeast 220 253 4,900 -714 Descending FlightAware ADS-B
Thu 06:31:07 AM -23.4710 -46.6380 114° Southeast 216 249 4,700 -706 Descending FlightAware ADS-B
Thu 06:31:19 AM -23.4740 -46.6260 105° East 210 242 4,500 -571 Descending FlightAware ADS-B
Thu 06:31:49 AM -23.4680 -46.5970 77° East 200 230 4,300 -720 Descending FlightAware ADS-B
Thu 06:32:09 AM -23.4630 -46.5780 74° East 197 227 3,900 -857 Descending FlightAware ADS-B
Thu 06:32:31 AM -23.4580 -46.5580 75° East 175 201 3,700 -714 Descending FlightAware ADS-B
Thu 06:32:51 AM -23.4530 -46.5420 71° East 159 183 3,400 -955 Descending FlightAware ADS-B
Thu 06:33:15 AM -23.4490 -46.5240 76° East 150 173 3,000 -977 Descending FlightAware ADS-B
Thu 06:33:34 AM -23.4450 -46.5120 70° East 150 173 2,700 -833 Descending FlightAware ADS-B
Thu 06:33:51 AM -23.4420 -46.5000 75° East 139 160 2,500 -649 Descending FlightAware ADS-B
Thu 06:34:11 AM -23.4390 -46.4860 77° East 138 159 2,300 -600 Descending FlightAware ADS-B

Login

Don't have an account? Register now (free) for customized features, flight alerts, and more!